sensor_id;sensor_type;location;lat;lon;timestamp;P1;durP1;ratioP1;P2;durP2;ratioP2
39654;SDS011;25336;59.944;11.010;2022-08-25T00:00:17;4.95;;;2.17;;
39654;SDS011;25336;59.944;11.010;2022-08-25T00:02:45;4.20;;;2.10;;
39654;SDS011;25336;59.944;11.010;2022-08-25T00:05:11;3.00;;;2.05;;
39654;SDS011;25336;59.944;11.010;2022-08-25T00:07:37;5.70;;;2.75;;
39654;SDS011;25336;59.944;11.010;2022-08-25T00:10:03;4.00;;;2.28;;
39654;SDS011;25336;59.944;11.010;2022-08-25T00:12:30;6.65;;;2.75;;
39654;SDS011;25336;59.944;11.010;2022-08-25T00:14:56;2.78;;;2.50;;
39654;SDS011;25336;59.944;11.010;2022-08-25T00:17:22;5.45;;;2.42;;
39654;SDS011;25336;59.944;11.010;2022-08-25T00:19:48;5.55;;;2.20;;
39654;SDS011;25336;59.944;11.010;2022-08-25T00:22:14;3.65;;;2.53;;
39654;SDS011;25336;59.944;11.010;2022-08-25T00:24:40;4.63;;;2.47;;
39654;SDS011;25336;59.944;11.010;2022-08-25T00:27:05;2.67;;;2.42;;
39654;SDS011;25336;59.944;11.010;2022-08-25T00:29:31;6.55;;;2.70;;
39654;SDS011;25336;59.944;11.010;2022-08-25T00:31:58;4.38;;;2.70;;
39654;SDS011;25336;59.944;11.010;2022-08-25T00:34:26;2.75;;;2.42;;
39654;SDS011;25336;59.944;11.010;2022-08-25T00:36:56;3.28;;;2.50;;
39654;SDS011;25336;59.944;11.010;2022-08-25T00:39:22;3.25;;;2.42;;
39654;SDS011;25336;59.944;11.010;2022-08-25T00:41:49;3.63;;;2.60;;
39654;SDS011;25336;59.944;11.010;2022-08-25T00:44:17;2.55;;;2.35;;
39654;SDS011;25336;59.944;11.010;2022-08-25T00:46:45;4.70;;;2.50;;
39654;SDS011;25336;59.944;11.010;2022-08-25T00:52:15;2.75;;;2.20;;
39654;SDS011;25336;59.944;11.010;2022-08-25T00:54:46;3.70;;;2.20;;
39654;SDS011;25336;59.944;11.010;2022-08-25T00:57:20;4.75;;;2.63;;
39654;SDS011;25336;59.944;11.010;2022-08-25T00:59:50;3.70;;;2.63;;
39654;SDS011;25336;59.944;11.010;2022-08-25T01:02:16;4.03;;;2.45;;
39654;SDS011;25336;59.944;11.010;2022-08-25T01:04:42;3.80;;;2.30;;
39654;SDS011;25336;59.944;11.010;2022-08-25T01:07:09;2.85;;;2.50;;
39654;SDS011;25336;59.944;11.010;2022-08-25T01:09:36;2.40;;;2.20;;
39654;SDS011;25336;59.944;11.010;2022-08-25T01:12:02;2.38;;;2.17;;
39654;SDS011;25336;59.944;11.010;2022-08-25T01:14:29;3.47;;;2.15;;
39654;SDS011;25336;59.944;11.010;2022-08-25T01:16:56;8.60;;;3.10;;
39654;SDS011;25336;59.944;11.010;2022-08-25T01:19:23;3.22;;;2.72;;
39654;SDS011;25336;59.944;11.010;2022-08-25T01:21:51;2.63;;;2.42;;
39654;SDS011;25336;59.944;11.010;2022-08-25T01:26:49;7.50;;;2.80;;
39654;SDS011;25336;59.944;11.010;2022-08-25T01:29:16;4.15;;;2.78;;
39654;SDS011;25336;59.944;11.010;2022-08-25T01:31:52;8.85;;;3.25;;
39654;SDS011;25336;59.944;11.010;2022-08-25T01:34:28;2.85;;;2.38;;
39654;SDS011;25336;59.944;11.010;2022-08-25T01:36:57;4.80;;;2.95;;
39654;SDS011;25336;59.944;11.010;2022-08-25T01:39:25;4.15;;;3.13;;
39654;SDS011;25336;59.944;11.010;2022-08-25T01:44:37;2.88;;;2.53;;
39654;SDS011;25336;59.944;11.010;2022-08-25T01:47:04;3.15;;;2.85;;
39654;SDS011;25336;59.944;11.010;2022-08-25T01:49:31;3.95;;;2.60;;
39654;SDS011;25336;59.944;11.010;2022-08-25T01:52:10;3.08;;;2.67;;
39654;SDS011;25336;59.944;11.010;2022-08-25T01:54:40;3.03;;;2.72;;
39654;SDS011;25336;59.944;11.010;2022-08-25T01:57:06;3.20;;;2.90;;
39654;SDS011;25336;59.944;11.010;2022-08-25T01:59:33;4.15;;;2.70;;
39654;SDS011;25336;59.944;11.010;2022-08-25T02:01:58;2.80;;;2.60;;
39654;SDS011;25336;59.944;11.010;2022-08-25T02:04:24;3.45;;;2.50;;
39654;SDS011;25336;59.944;11.010;2022-08-25T02:06:50;9.68;;;2.90;;
39654;SDS011;25336;59.944;11.010;2022-08-25T02:09:16;4.40;;;2.60;;
39654;SDS011;25336;59.944;11.010;2022-08-25T02:11:43;7.80;;;3.35;;
39654;SDS011;25336;59.944;11.010;2022-08-25T02:14:11;3.03;;;2.70;;
39654;SDS011;25336;59.944;11.010;2022-08-25T02:16:39;7.43;;;3.72;;
39654;SDS011;25336;59.944;11.010;2022-08-25T02:19:07;3.35;;;2.33;;
39654;SDS011;25336;59.944;11.010;2022-08-25T02:21:34;3.40;;;2.50;;
39654;SDS011;25336;59.944;11.010;2022-08-25T02:24:00;4.22;;;2.85;;
39654;SDS011;25336;59.944;11.010;2022-08-25T02:26:27;5.60;;;2.90;;
39654;SDS011;25336;59.944;11.010;2022-08-25T02:28:53;6.20;;;2.97;;
39654;SDS011;25336;59.944;11.010;2022-08-25T02:31:20;5.93;;;2.50;;
39654;SDS011;25336;59.944;11.010;2022-08-25T02:33:47;4.22;;;2.95;;
39654;SDS011;25336;59.944;11.010;2022-08-25T02:36:14;3.90;;;3.10;;
39654;SDS011;25336;59.944;11.010;2022-08-25T02:38:40;5.90;;;2.88;;
39654;SDS011;25336;59.944;11.010;2022-08-25T02:41:11;5.53;;;2.58;;
39654;SDS011;25336;59.944;11.010;2022-08-25T02:43:39;5.40;;;2.70;;
39654;SDS011;25336;59.944;11.010;2022-08-25T02:46:05;4.88;;;3.10;;
39654;SDS011;25336;59.944;11.010;2022-08-25T02:48:31;5.85;;;2.75;;
39654;SDS011;25336;59.944;11.010;2022-08-25T02:50:58;2.70;;;2.45;;
39654;SDS011;25336;59.944;11.010;2022-08-25T02:53:25;3.45;;;2.35;;
39654;SDS011;25336;59.944;11.010;2022-08-25T02:55:52;6.22;;;3.35;;
39654;SDS011;25336;59.944;11.010;2022-08-25T02:58:18;4.75;;;2.95;;
39654;SDS011;25336;59.944;11.010;2022-08-25T03:00:44;3.72;;;2.58;;
39654;SDS011;25336;59.944;11.010;2022-08-25T03:03:11;5.57;;;3.25;;
39654;SDS011;25336;59.944;11.010;2022-08-25T03:05:36;3.78;;;2.63;;
39654;SDS011;25336;59.944;11.010;2022-08-25T03:08:03;2.78;;;2.58;;
39654;SDS011;25336;59.944;11.010;2022-08-25T03:10:29;5.30;;;2.85;;
39654;SDS011;25336;59.944;11.010;2022-08-25T03:12:55;4.05;;;3.10;;
39654;SDS011;25336;59.944;11.010;2022-08-25T03:15:21;5.50;;;2.42;;
39654;SDS011;25336;59.944;11.010;2022-08-25T03:17:49;4.78;;;2.92;;
39654;SDS011;25336;59.944;11.010;2022-08-25T03:20:16;4.50;;;3.08;;
39654;SDS011;25336;59.944;11.010;2022-08-25T03:22:43;3.28;;;2.75;;
39654;SDS011;25336;59.944;11.010;2022-08-25T03:25:09;5.18;;;3.20;;
39654;SDS011;25336;59.944;11.010;2022-08-25T03:27:55;2.97;;;2.60;;
39654;SDS011;25336;59.944;11.010;2022-08-25T03:30:21;5.90;;;2.75;;
39654;SDS011;25336;59.944;11.010;2022-08-25T03:32:46;3.13;;;2.80;;
39654;SDS011;25336;59.944;11.010;2022-08-25T03:35:12;6.05;;;3.17;;
39654;SDS011;25336;59.944;11.010;2022-08-25T03:37:39;6.55;;;3.45;;
39654;SDS011;25336;59.944;11.010;2022-08-25T03:40:05;4.70;;;3.05;;
39654;SDS011;25336;59.944;11.010;2022-08-25T03:42:33;2.85;;;2.58;;
39654;SDS011;25336;59.944;11.010;2022-08-25T03:45:01;3.63;;;2.70;;
39654;SDS011;25336;59.944;11.010;2022-08-25T03:47:28;4.80;;;2.78;;
39654;SDS011;25336;59.944;11.010;2022-08-25T03:49:54;4.70;;;2.55;;
39654;SDS011;25336;59.944;11.010;2022-08-25T03:52:20;5.90;;;3.42;;
39654;SDS011;25336;59.944;11.010;2022-08-25T03:54:46;4.88;;;3.00;;
39654;SDS011;25336;59.944;11.010;2022-08-25T03:57:11;6.72;;;2.50;;
39654;SDS011;25336;59.944;11.010;2022-08-25T03:59:37;8.40;;;3.95;;
39654;SDS011;25336;59.944;11.010;2022-08-25T04:02:03;4.07;;;2.88;;
39654;SDS011;25336;59.944;11.010;2022-08-25T04:04:30;6.75;;;3.20;;
39654;SDS011;25336;59.944;11.010;2022-08-25T04:06:55;4.10;;;2.80;;
39654;SDS011;25336;59.944;11.010;2022-08-25T04:09:22;5.72;;;3.08;;
39654;SDS011;25336;59.944;11.010;2022-08-25T04:11:49;4.80;;;2.80;;
39654;SDS011;25336;59.944;11.010;2022-08-25T04:14:15;6.07;;;3.00;;
39654;SDS011;25336;59.944;11.010;2022-08-25T04:16:40;4.93;;;3.08;;
39654;SDS011;25336;59.944;11.010;2022-08-25T04:19:06;3.85;;;3.08;;
39654;SDS011;25336;59.944;11.010;2022-08-25T04:21:34;3.67;;;2.90;;
39654;SDS011;25336;59.944;11.010;2022-08-25T04:24:01;3.97;;;2.90;;
39654;SDS011;25336;59.944;11.010;2022-08-25T04:26:29;12.10;;;3.80;;
39654;SDS011;25336;59.944;11.010;2022-08-25T04:29:00;6.68;;;3.83;;
39654;SDS011;25336;59.944;11.010;2022-08-25T04:31:28;3.03;;;2.53;;
39654;SDS011;25336;59.944;11.010;2022-08-25T04:33:54;4.57;;;3.30;;
39654;SDS011;25336;59.944;11.010;2022-08-25T04:36:21;3.47;;;2.83;;
39654;SDS011;25336;59.944;11.010;2022-08-25T04:38:47;6.97;;;2.90;;
39654;SDS011;25336;59.944;11.010;2022-08-25T04:41:14;5.18;;;3.03;;
39654;SDS011;25336;59.944;11.010;2022-08-25T04:43:43;7.43;;;3.28;;
39654;SDS011;25336;59.944;11.010;2022-08-25T04:46:14;4.28;;;2.90;;
39654;SDS011;25336;59.944;11.010;2022-08-25T04:48:42;3.25;;;2.92;;
39654;SDS011;25336;59.944;11.010;2022-08-25T04:51:10;3.75;;;2.80;;
39654;SDS011;25336;59.944;11.010;2022-08-25T04:53:38;3.13;;;2.72;;
39654;SDS011;25336;59.944;11.010;2022-08-25T04:56:06;4.80;;;3.08;;
39654;SDS011;25336;59.944;11.010;2022-08-25T04:58:37;4.25;;;2.80;;
39654;SDS011;25336;59.944;11.010;2022-08-25T05:01:05;5.97;;;3.40;;
39654;SDS011;25336;59.944;11.010;2022-08-25T05:03:33;8.63;;;3.72;;
39654;SDS011;25336;59.944;11.010;2022-08-25T05:05:59;4.38;;;2.92;;
39654;SDS011;25336;59.944;11.010;2022-08-25T05:08:25;4.88;;;2.90;;
39654;SDS011;25336;59.944;11.010;2022-08-25T05:10:51;5.47;;;3.08;;
39654;SDS011;25336;59.944;11.010;2022-08-25T05:13:19;4.78;;;3.17;;
39654;SDS011;25336;59.944;11.010;2022-08-25T05:15:54;6.90;;;3.40;;
39654;SDS011;25336;59.944;11.010;2022-08-25T05:18:22;4.15;;;2.80;;
39654;SDS011;25336;59.944;11.010;2022-08-25T05:20:50;3.10;;;2.80;;
39654;SDS011;25336;59.944;11.010;2022-08-25T05:23:18;4.82;;;2.90;;
39654;SDS011;25336;59.944;11.010;2022-08-25T05:25:45;3.97;;;2.65;;
39654;SDS011;25336;59.944;11.010;2022-08-25T05:28:10;6.35;;;3.08;;
39654;SDS011;25336;59.944;11.010;2022-08-25T05:30:37;9.68;;;2.63;;
39654;SDS011;25336;59.944;11.010;2022-08-25T05:33:04;9.15;;;3.33;;
39654;SDS011;25336;59.944;11.010;2022-08-25T05:35:30;9.35;;;3.00;;
39654;SDS011;25336;59.944;11.010;2022-08-25T05:37:55;5.13;;;2.85;;
39654;SDS011;25336;59.944;11.010;2022-08-25T05:40:21;3.35;;;2.80;;
39654;SDS011;25336;59.944;11.010;2022-08-25T05:42:48;4.65;;;2.78;;
39654;SDS011;25336;59.944;11.010;2022-08-25T05:45:15;3.22;;;2.92;;
39654;SDS011;25336;59.944;11.010;2022-08-25T05:47:41;3.22;;;2.90;;
39654;SDS011;25336;59.944;11.010;2022-08-25T05:50:07;6.30;;;3.65;;
39654;SDS011;25336;59.944;11.010;2022-08-25T05:52:33;4.40;;;3.10;;
39654;SDS011;25336;59.944;11.010;2022-08-25T05:54:59;6.45;;;3.45;;
39654;SDS011;25336;59.944;11.010;2022-08-25T05:57:25;3.60;;;3.30;;
39654;SDS011;25336;59.944;11.010;2022-08-25T05:59:50;3.25;;;2.85;;
39654;SDS011;25336;59.944;11.010;2022-08-25T06:02:16;3.75;;;3.20;;
39654;SDS011;25336;59.944;11.010;2022-08-25T06:05:00;3.83;;;3.30;;
39654;SDS011;25336;59.944;11.010;2022-08-25T06:07:26;6.15;;;3.55;;
39654;SDS011;25336;59.944;11.010;2022-08-25T06:09:52;4.55;;;3.15;;
39654;SDS011;25336;59.944;11.010;2022-08-25T06:12:17;6.30;;;3.40;;
39654;SDS011;25336;59.944;11.010;2022-08-25T06:14:45;4.68;;;3.45;;
39654;SDS011;25336;59.944;11.010;2022-08-25T06:17:11;5.32;;;3.20;;
39654;SDS011;25336;59.944;11.010;2022-08-25T06:19:36;5.22;;;3.25;;
39654;SDS011;25336;59.944;11.010;2022-08-25T06:22:02;4.40;;;3.55;;
39654;SDS011;25336;59.944;11.010;2022-08-25T06:24:28;10.52;;;3.40;;
39654;SDS011;25336;59.944;11.010;2022-08-25T06:26:54;6.55;;;3.30;;
39654;SDS011;25336;59.944;11.010;2022-08-25T06:29:20;6.80;;;3.40;;
39654;SDS011;25336;59.944;11.010;2022-08-25T06:31:46;5.40;;;3.22;;
39654;SDS011;25336;59.944;11.010;2022-08-25T06:34:13;3.05;;;2.78;;
39654;SDS011;25336;59.944;11.010;2022-08-25T06:36:40;6.75;;;4.38;;
39654;SDS011;25336;59.944;11.010;2022-08-25T06:39:06;5.32;;;3.17;;
39654;SDS011;25336;59.944;11.010;2022-08-25T06:41:32;4.10;;;3.47;;
39654;SDS011;25336;59.944;11.010;2022-08-25T06:43:58;5.35;;;3.30;;
39654;SDS011;25336;59.944;11.010;2022-08-25T06:46:24;5.07;;;3.40;;
39654;SDS011;25336;59.944;11.010;2022-08-25T06:48:51;7.03;;;2.90;;
39654;SDS011;25336;59.944;11.010;2022-08-25T06:51:19;5.80;;;3.15;;
39654;SDS011;25336;59.944;11.010;2022-08-25T06:53:46;7.35;;;2.97;;
39654;SDS011;25336;59.944;11.010;2022-08-25T06:56:13;8.68;;;3.50;;
39654;SDS011;25336;59.944;11.010;2022-08-25T06:58:40;4.75;;;3.17;;
39654;SDS011;25336;59.944;11.010;2022-08-25T07:03:33;4.22;;;3.13;;
39654;SDS011;25336;59.944;11.010;2022-08-25T07:05:59;4.75;;;3.20;;
39654;SDS011;25336;59.944;11.010;2022-08-25T07:08:25;5.25;;;3.15;;
39654;SDS011;25336;59.944;11.010;2022-08-25T07:10:50;4.38;;;2.80;;
39654;SDS011;25336;59.944;11.010;2022-08-25T07:13:16;5.18;;;3.22;;
39654;SDS011;25336;59.944;11.010;2022-08-25T07:15:42;4.75;;;3.22;;
39654;SDS011;25336;59.944;11.010;2022-08-25T07:18:09;4.15;;;3.10;;
39654;SDS011;25336;59.944;11.010;2022-08-25T07:20:39;4.18;;;3.08;;
39654;SDS011;25336;59.944;11.010;2022-08-25T07:23:05;5.65;;;3.42;;
39654;SDS011;25336;59.944;11.010;2022-08-25T07:25:32;5.85;;;2.92;;
39654;SDS011;25336;59.944;11.010;2022-08-25T07:27:58;5.35;;;2.70;;
39654;SDS011;25336;59.944;11.010;2022-08-25T07:30:24;5.18;;;3.10;;
39654;SDS011;25336;59.944;11.010;2022-08-25T07:32:50;7.72;;;3.28;;
39654;SDS011;25336;59.944;11.010;2022-08-25T07:35:16;4.80;;;3.13;;
39654;SDS011;25336;59.944;11.010;2022-08-25T07:37:45;3.60;;;3.10;;
39654;SDS011;25336;59.944;11.010;2022-08-25T07:40:14;10.15;;;3.60;;
39654;SDS011;25336;59.944;11.010;2022-08-25T07:42:48;7.25;;;3.08;;
39654;SDS011;25336;59.944;11.010;2022-08-25T07:45:15;4.03;;;2.78;;
39654;SDS011;25336;59.944;11.010;2022-08-25T07:47:41;6.47;;;2.75;;
39654;SDS011;25336;59.944;11.010;2022-08-25T07:50:07;5.63;;;2.83;;
39654;SDS011;25336;59.944;11.010;2022-08-25T07:52:35;4.35;;;2.92;;
39654;SDS011;25336;59.944;11.010;2022-08-25T07:55:01;5.30;;;3.00;;
39654;SDS011;25336;59.944;11.010;2022-08-25T07:57:27;4.32;;;3.25;;
39654;SDS011;25336;59.944;11.010;2022-08-25T07:59:54;5.20;;;3.13;;
39654;SDS011;25336;59.944;11.010;2022-08-25T08:02:20;3.53;;;2.63;;
39654;SDS011;25336;59.944;11.010;2022-08-25T08:04:47;4.93;;;2.92;;
39654;SDS011;25336;59.944;11.010;2022-08-25T08:07:15;4.55;;;2.78;;
39654;SDS011;25336;59.944;11.010;2022-08-25T08:09:42;3.95;;;2.67;;
39654;SDS011;25336;59.944;11.010;2022-08-25T08:12:07;4.43;;;2.80;;
39654;SDS011;25336;59.944;11.010;2022-08-25T08:14:33;3.28;;;2.35;;
39654;SDS011;25336;59.944;11.010;2022-08-25T08:16:59;7.15;;;2.55;;
39654;SDS011;25336;59.944;11.010;2022-08-25T08:19:33;7.72;;;2.88;;
39654;SDS011;25336;59.944;11.010;2022-08-25T08:22:00;4.13;;;2.33;;
39654;SDS011;25336;59.944;11.010;2022-08-25T08:24:30;4.22;;;2.22;;
39654;SDS011;25336;59.944;11.010;2022-08-25T08:27:03;3.05;;;2.25;;
39654;SDS011;25336;59.944;11.010;2022-08-25T08:29:33;3.90;;;2.33;;
39654;SDS011;25336;59.944;11.010;2022-08-25T08:32:00;3.05;;;2.30;;
39654;SDS011;25336;59.944;11.010;2022-08-25T08:34:27;11.40;;;2.88;;
39654;SDS011;25336;59.944;11.010;2022-08-25T08:36:54;3.22;;;2.15;;
39654;SDS011;25336;59.944;11.010;2022-08-25T08:39:20;6.97;;;2.30;;
39654;SDS011;25336;59.944;11.010;2022-08-25T08:45:05;4.82;;;2.17;;
39654;SDS011;25336;59.944;11.010;2022-08-25T08:53:31;5.03;;;2.20;;
39654;SDS011;25336;59.944;11.010;2022-08-25T08:56:04;2.42;;;1.85;;
39654;SDS011;25336;59.944;11.010;2022-08-25T08:58:43;4.30;;;1.95;;
39654;SDS011;25336;59.944;11.010;2022-08-25T09:01:17;2.28;;;2.08;;
39654;SDS011;25336;59.944;11.010;2022-08-25T09:03:49;4.57;;;2.35;;
39654;SDS011;25336;59.944;11.010;2022-08-25T09:06:24;2.38;;;1.60;;
39654;SDS011;25336;59.944;11.010;2022-08-25T09:08:56;5.55;;;2.05;;
39654;SDS011;25336;59.944;11.010;2022-08-25T09:14:32;3.75;;;1.95;;
39654;SDS011;25336;59.944;11.010;2022-08-25T09:17:04;2.72;;;1.90;;
39654;SDS011;25336;59.944;11.010;2022-08-25T09:25:21;2.83;;;1.73;;
39654;SDS011;25336;59.944;11.010;2022-08-25T09:30:22;4.13;;;2.00;;
39654;SDS011;25336;59.944;11.010;2022-08-25T09:32:50;2.20;;;1.80;;
39654;SDS011;25336;59.944;11.010;2022-08-25T09:35:27;6.97;;;2.55;;
39654;SDS011;25336;59.944;11.010;2022-08-25T09:37:56;3.40;;;1.63;;
39654;SDS011;25336;59.944;11.010;2022-08-25T09:40:27;1.90;;;1.40;;
39654;SDS011;25336;59.944;11.010;2022-08-25T09:42:59;7.68;;;1.90;;
39654;SDS011;25336;59.944;11.010;2022-08-25T09:45:44;1.52;;;1.38;;
39654;SDS011;25336;59.944;11.010;2022-08-25T09:48:22;4.53;;;1.63;;
39654;SDS011;25336;59.944;11.010;2022-08-25T09:50:57;2.33;;;1.70;;
39654;SDS011;25336;59.944;11.010;2022-08-25T09:53:25;3.38;;;1.50;;
39654;SDS011;25336;59.944;11.010;2022-08-25T09:56:01;1.55;;;1.45;;
39654;SDS011;25336;59.944;11.010;2022-08-25T09:58:29;2.80;;;1.50;;
39654;SDS011;25336;59.944;11.010;2022-08-25T10:01:00;2.92;;;1.80;;
39654;SDS011;25336;59.944;11.010;2022-08-25T10:03:36;3.35;;;1.95;;
39654;SDS011;25336;59.944;11.010;2022-08-25T10:06:17;2.78;;;1.40;;
39654;SDS011;25336;59.944;11.010;2022-08-25T10:11:09;2.15;;;1.40;;
39654;SDS011;25336;59.944;11.010;2022-08-25T10:13:43;2.20;;;1.50;;
39654;SDS011;25336;59.944;11.010;2022-08-25T10:18:58;2.05;;;1.70;;
39654;SDS011;25336;59.944;11.010;2022-08-25T10:21:24;3.15;;;1.75;;
39654;SDS011;25336;59.944;11.010;2022-08-25T10:23:51;2.70;;;1.45;;
39654;SDS011;25336;59.944;11.010;2022-08-25T10:29:22;4.03;;;1.73;;
39654;SDS011;25336;59.944;11.010;2022-08-25T10:50:32;1.55;;;1.42;;
39654;SDS011;25336;59.944;11.010;2022-08-25T10:55:59;3.20;;;1.80;;
39654;SDS011;25336;59.944;11.010;2022-08-25T10:58:41;2.03;;;1.60;;
39654;SDS011;25336;59.944;11.010;2022-08-25T11:04:02;2.38;;;1.55;;
39654;SDS011;25336;59.944;11.010;2022-08-25T11:06:38;6.15;;;1.30;;
39654;SDS011;25336;59.944;11.010;2022-08-25T11:09:09;3.97;;;1.67;;
39654;SDS011;25336;59.944;11.010;2022-08-25T11:11:44;7.35;;;1.80;;
39654;SDS011;25336;59.944;11.010;2022-08-25T11:14:19;1.92;;;1.50;;
39654;SDS011;25336;59.944;11.010;2022-08-25T11:19:34;4.60;;;1.17;;
39654;SDS011;25336;59.944;11.010;2022-08-25T11:22:09;1.80;;;1.27;;
39654;SDS011;25336;59.944;11.010;2022-08-25T11:24:41;2.47;;;1.40;;
39654;SDS011;25336;59.944;11.010;2022-08-25T11:30:25;2.45;;;1.38;;
39654;SDS011;25336;59.944;11.010;2022-08-25T11:32:53;2.33;;;1.88;;
39654;SDS011;25336;59.944;11.010;2022-08-25T11:38:05;2.67;;;1.63;;
39654;SDS011;25336;59.944;11.010;2022-08-25T11:40:58;1.95;;;1.52;;
39654;SDS011;25336;59.944;11.010;2022-08-25T11:48:55;1.63;;;1.50;;
39654;SDS011;25336;59.944;11.010;2022-08-25T11:51:50;6.05;;;1.95;;
39654;SDS011;25336;59.944;11.010;2022-08-25T11:54:32;5.20;;;1.50;;
39654;SDS011;25336;59.944;11.010;2022-08-25T11:57:09;2.30;;;1.52;;
39654;SDS011;25336;59.944;11.010;2022-08-25T12:04:59;4.07;;;2.20;;
39654;SDS011;25336;59.944;11.010;2022-08-25T12:07:29;9.10;;;1.75;;
39654;SDS011;25336;59.944;11.010;2022-08-25T12:17:46;2.33;;;1.55;;
39654;SDS011;25336;59.944;11.010;2022-08-25T12:23:35;2.50;;;1.60;;
39654;SDS011;25336;59.944;11.010;2022-08-25T12:26:06;3.50;;;1.90;;
39654;SDS011;25336;59.944;11.010;2022-08-25T12:28:57;1.52;;;1.13;;
39654;SDS011;25336;59.944;11.010;2022-08-25T12:37:16;2.75;;;1.30;;
39654;SDS011;25336;59.944;11.010;2022-08-25T12:44:45;4.90;;;1.55;;
39654;SDS011;25336;59.944;11.010;2022-08-25T12:47:24;4.20;;;1.20;;
39654;SDS011;25336;59.944;11.010;2022-08-25T12:50:22;3.10;;;1.25;;
39654;SDS011;25336;59.944;11.010;2022-08-25T12:52:51;3.08;;;1.63;;
39654;SDS011;25336;59.944;11.010;2022-08-25T12:55:20;3.28;;;1.45;;
39654;SDS011;25336;59.944;11.010;2022-08-25T12:57:51;7.03;;;1.50;;
39654;SDS011;25336;59.944;11.010;2022-08-25T13:00:23;3.33;;;1.50;;
39654;SDS011;25336;59.944;11.010;2022-08-25T13:08:22;1.70;;;1.20;;
39654;SDS011;25336;59.944;11.010;2022-08-25T13:11:08;3.45;;;1.60;;
39654;SDS011;25336;59.944;11.010;2022-08-25T13:13:50;2.70;;;1.60;;
39654;SDS011;25336;59.944;11.010;2022-08-25T13:16:20;1.60;;;1.48;;
39654;SDS011;25336;59.944;11.010;2022-08-25T13:18:50;1.50;;;1.38;;
39654;SDS011;25336;59.944;11.010;2022-08-25T13:21:34;1.48;;;1.38;;
39654;SDS011;25336;59.944;11.010;2022-08-25T13:24:04;8.48;;;1.63;;
39654;SDS011;25336;59.944;11.010;2022-08-25T13:26:39;2.78;;;1.50;;
39654;SDS011;25336;59.944;11.010;2022-08-25T13:31:33;2.63;;;1.60;;
39654;SDS011;25336;59.944;11.010;2022-08-25T13:34:03;4.78;;;1.85;;
39654;SDS011;25336;59.944;11.010;2022-08-25T13:36:31;3.08;;;1.40;;
39654;SDS011;25336;59.944;11.010;2022-08-25T13:39:25;2.00;;;1.23;;
39654;SDS011;25336;59.944;11.010;2022-08-25T13:41:52;2.40;;;1.42;;
39654;SDS011;25336;59.944;11.010;2022-08-25T13:44:20;4.05;;;1.60;;
39654;SDS011;25336;59.944;11.010;2022-08-25T13:47:03;3.85;;;1.48;;
39654;SDS011;25336;59.944;11.010;2022-08-25T13:49:34;2.78;;;1.23;;
39654;SDS011;25336;59.944;11.010;2022-08-25T13:52:01;1.50;;;1.40;;
39654;SDS011;25336;59.944;11.010;2022-08-25T13:54:34;2.03;;;1.30;;
39654;SDS011;25336;59.944;11.010;2022-08-25T13:59:36;1.50;;;1.37;;
39654;SDS011;25336;59.944;11.010;2022-08-25T14:02:04;1.77;;;1.60;;
39654;SDS011;25336;59.944;11.010;2022-08-25T14:07:13;2.80;;;1.60;;
39654;SDS011;25336;59.944;11.010;2022-08-25T14:10:45;4.32;;;1.67;;
39654;SDS011;25336;59.944;11.010;2022-08-25T14:13:11;2.63;;;1.48;;
39654;SDS011;25336;59.944;11.010;2022-08-25T14:15:40;2.78;;;1.45;;
39654;SDS011;25336;59.944;11.010;2022-08-25T14:18:20;5.60;;;1.70;;
39654;SDS011;25336;59.944;11.010;2022-08-25T14:20:56;1.52;;;1.30;;
39654;SDS011;25336;59.944;11.010;2022-08-25T14:23:26;3.17;;;1.45;;
39654;SDS011;25336;59.944;11.010;2022-08-25T14:25:55;2.15;;;1.52;;
39654;SDS011;25336;59.944;11.010;2022-08-25T14:28:23;1.75;;;1.30;;
39654;SDS011;25336;59.944;11.010;2022-08-25T14:30:55;2.25;;;1.60;;
39654;SDS011;25336;59.944;11.010;2022-08-25T14:33:24;4.85;;;1.73;;
39654;SDS011;25336;59.944;11.010;2022-08-25T14:35:54;1.45;;;1.30;;
39654;SDS011;25336;59.944;11.010;2022-08-25T14:38:23;2.13;;;1.55;;
39654;SDS011;25336;59.944;11.010;2022-08-25T14:40:52;4.63;;;2.10;;
39654;SDS011;25336;59.944;11.010;2022-08-25T14:43:18;2.20;;;1.60;;
39654;SDS011;25336;59.944;11.010;2022-08-25T14:45:45;2.47;;;1.52;;
39654;SDS011;25336;59.944;11.010;2022-08-25T14:48:16;1.92;;;1.55;;
39654;SDS011;25336;59.944;11.010;2022-08-25T14:50:52;9.48;;;2.20;;
39654;SDS011;25336;59.944;11.010;2022-08-25T14:53:20;7.97;;;1.15;;
39654;SDS011;25336;59.944;11.010;2022-08-25T14:55:45;4.32;;;1.48;;
39654;SDS011;25336;59.944;11.010;2022-08-25T14:58:11;4.88;;;1.80;;
39654;SDS011;25336;59.944;11.010;2022-08-25T15:00:39;5.25;;;1.60;;
39654;SDS011;25336;59.944;11.010;2022-08-25T15:03:10;2.90;;;1.42;;
39654;SDS011;25336;59.944;11.010;2022-08-25T15:05:38;3.60;;;1.70;;
39654;SDS011;25336;59.944;11.010;2022-08-25T15:08:04;3.80;;;1.50;;
39654;SDS011;25336;59.944;11.010;2022-08-25T15:10:49;2.80;;;1.50;;
39654;SDS011;25336;59.944;11.010;2022-08-25T15:13:15;2.45;;;1.63;;
39654;SDS011;25336;59.944;11.010;2022-08-25T15:15:42;3.05;;;1.20;;
39654;SDS011;25336;59.944;11.010;2022-08-25T15:18:09;1.98;;;1.23;;
39654;SDS011;25336;59.944;11.010;2022-08-25T15:20:35;1.83;;;1.30;;
39654;SDS011;25336;59.944;11.010;2022-08-25T15:23:04;3.08;;;1.38;;
39654;SDS011;25336;59.944;11.010;2022-08-25T15:25:30;2.15;;;1.50;;
39654;SDS011;25336;59.944;11.010;2022-08-25T15:27:55;2.47;;;1.40;;
39654;SDS011;25336;59.944;11.010;2022-08-25T15:30:21;1.70;;;1.30;;
39654;SDS011;25336;59.944;11.010;2022-08-25T15:32:47;3.40;;;1.40;;
39654;SDS011;25336;59.944;11.010;2022-08-25T15:35:12;2.55;;;2.35;;
39654;SDS011;25336;59.944;11.010;2022-08-25T15:37:38;3.58;;;1.80;;
39654;SDS011;25336;59.944;11.010;2022-08-25T15:40:04;4.38;;;1.60;;
39654;SDS011;25336;59.944;11.010;2022-08-25T15:42:35;1.92;;;1.48;;
39654;SDS011;25336;59.944;11.010;2022-08-25T15:45:02;2.47;;;1.80;;
39654;SDS011;25336;59.944;11.010;2022-08-25T15:47:31;2.00;;;1.30;;
39654;SDS011;25336;59.944;11.010;2022-08-25T15:50:02;3.08;;;1.40;;
39654;SDS011;25336;59.944;11.010;2022-08-25T15:52:33;2.38;;;1.35;;
39654;SDS011;25336;59.944;11.010;2022-08-25T15:54:59;6.90;;;1.40;;
39654;SDS011;25336;59.944;11.010;2022-08-25T15:57:25;2.22;;;1.45;;
39654;SDS011;25336;59.944;11.010;2022-08-25T15:59:51;3.20;;;1.20;;
39654;SDS011;25336;59.944;11.010;2022-08-25T16:02:17;4.15;;;1.13;;
39654;SDS011;25336;59.944;11.010;2022-08-25T16:04:43;3.20;;;1.60;;
39654;SDS011;25336;59.944;11.010;2022-08-25T16:07:09;3.72;;;1.35;;
39654;SDS011;25336;59.944;11.010;2022-08-25T16:09:37;1.70;;;1.48;;
39654;SDS011;25336;59.944;11.010;2022-08-25T16:12:03;2.35;;;1.27;;
39654;SDS011;25336;59.944;11.010;2022-08-25T16:14:32;2.60;;;1.15;;
39654;SDS011;25336;59.944;11.010;2022-08-25T16:16:57;2.50;;;1.30;;
39654;SDS011;25336;59.944;11.010;2022-08-25T16:19:23;1.65;;;1.20;;
39654;SDS011;25336;59.944;11.010;2022-08-25T16:21:50;1.75;;;1.20;;
39654;SDS011;25336;59.944;11.010;2022-08-25T16:24:15;1.88;;;1.00;;
39654;SDS011;25336;59.944;11.010;2022-08-25T16:26:41;1.30;;;1.20;;
39654;SDS011;25336;59.944;11.010;2022-08-25T16:29:10;2.45;;;1.52;;
39654;SDS011;25336;59.944;11.010;2022-08-25T16:31:38;2.55;;;1.35;;
39654;SDS011;25336;59.944;11.010;2022-08-25T16:34:04;1.35;;;1.20;;
39654;SDS011;25336;59.944;11.010;2022-08-25T16:36:30;2.47;;;1.40;;
39654;SDS011;25336;59.944;11.010;2022-08-25T16:39:00;3.13;;;1.40;;
39654;SDS011;25336;59.944;11.010;2022-08-25T16:41:27;2.83;;;1.15;;